LGSA/CHQ METAR and TAF weather

Enter ICAO airport designator
Station Type Date Time Source
LGSA METAR 2020/01/26 18:50 UTC NOAA

LGSA 261850Z 00000KT 9999 SCT100 11/11 Q1024


Station Type Date Time Source
LGSA Decoded METAR 2020/01/26 18:50 UTC NOAA

Souda Airport , Greece (LGSA) 35-29N 024-07E 151M
Jan 26, 2020 - 01:50 PM EST / 2020.01.26 1850 UTC
Wind: Calm:0
Visibility: greater than 7 mile(s):0
Sky conditions: partly cloudy
Temperature: 51 F (11 C)
Dew Point: 51 F (11 C)
Relative Humidity: 100%
Pressure (altimeter): 30.24 in. Hg (1024 hPa)
ob: LGSA 261850Z 00000KT 9999 SCT100 11/11 Q1024
cycle: 19

Station Type Date Time Source
LGSA TAF 2020/01/26 18:12 UTC NOAA

TAF LGSA 261700Z 2618/2718 VRB05KT 9999 FEW020 BKN080

Example: see airport list